sensor_id;sensor_type;location;lat;lon;timestamp;P1;durP1;ratioP1;P2;durP2;ratioP2
74892;SDS011;63446;56.272;43.922;2023-06-24T00:01:00;13.65;;;5.63;;
74892;SDS011;63446;56.272;43.922;2023-06-24T00:03:26;11.60;;;5.60;;
74892;SDS011;63446;56.272;43.922;2023-06-24T00:05:52;10.43;;;5.60;;
74892;SDS011;63446;56.272;43.922;2023-06-24T00:08:18;10.73;;;5.30;;
74892;SDS011;63446;56.272;43.922;2023-06-24T00:10:46;11.20;;;5.93;;
74892;SDS011;63446;56.272;43.922;2023-06-24T00:13:13;12.10;;;5.80;;
74892;SDS011;63446;56.272;43.922;2023-06-24T00:15:39;11.95;;;5.95;;
74892;SDS011;63446;56.272;43.922;2023-06-24T00:18:09;11.80;;;5.55;;
74892;SDS011;63446;56.272;43.922;2023-06-24T00:20:36;10.75;;;5.13;;
74892;SDS011;63446;56.272;43.922;2023-06-24T00:23:02;11.73;;;5.37;;
74892;SDS011;63446;56.272;43.922;2023-06-24T00:25:28;11.32;;;4.95;;
74892;SDS011;63446;56.272;43.922;2023-06-24T00:27:54;11.15;;;5.40;;
74892;SDS011;63446;56.272;43.922;2023-06-24T00:30:21;8.90;;;5.00;;
74892;SDS011;63446;56.272;43.922;2023-06-24T00:32:48;10.80;;;5.13;;
74892;SDS011;63446;56.272;43.922;2023-06-24T00:35:14;9.77;;;5.73;;
74892;SDS011;63446;56.272;43.922;2023-06-24T00:37:41;12.55;;;5.30;;
74892;SDS011;63446;56.272;43.922;2023-06-24T00:40:08;8.93;;;5.00;;
74892;SDS011;63446;56.272;43.922;2023-06-24T00:42:36;10.52;;;5.15;;
74892;SDS011;63446;56.272;43.922;2023-06-24T00:45:03;11.82;;;5.68;;
74892;SDS011;63446;56.272;43.922;2023-06-24T00:47:31;9.93;;;4.90;;
74892;SDS011;63446;56.272;43.922;2023-06-24T00:49:58;10.50;;;5.75;;
74892;SDS011;63446;56.272;43.922;2023-06-24T00:52:24;15.57;;;5.32;;
74892;SDS011;63446;56.272;43.922;2023-06-24T00:54:49;10.03;;;5.40;;
74892;SDS011;63446;56.272;43.922;2023-06-24T00:57:15;10.00;;;5.07;;
74892;SDS011;63446;56.272;43.922;2023-06-24T00:59:42;9.73;;;5.65;;
74892;SDS011;63446;56.272;43.922;2023-06-24T01:02:11;10.47;;;5.77;;
74892;SDS011;63446;56.272;43.922;2023-06-24T01:04:37;9.40;;;5.22;;
74892;SDS011;63446;56.272;43.922;2023-06-24T01:07:04;11.07;;;5.70;;
74892;SDS011;63446;56.272;43.922;2023-06-24T01:09:31;13.43;;;5.72;;
74892;SDS011;63446;56.272;43.922;2023-06-24T01:11:57;10.10;;;5.38;;
74892;SDS011;63446;56.272;43.922;2023-06-24T01:14:24;9.90;;;5.57;;
74892;SDS011;63446;56.272;43.922;2023-06-24T01:19:49;11.30;;;5.55;;
74892;SDS011;63446;56.272;43.922;2023-06-24T01:30:54;10.48;;;5.18;;
74892;SDS011;63446;56.272;43.922;2023-06-24T01:33:22;9.95;;;5.68;;
74892;SDS011;63446;56.272;43.922;2023-06-24T01:35:54;14.63;;;5.75;;
74892;SDS011;63446;56.272;43.922;2023-06-24T01:38:22;10.80;;;5.60;;
74892;SDS011;63446;56.272;43.922;2023-06-24T01:40:56;10.32;;;5.50;;
74892;SDS011;63446;56.272;43.922;2023-06-24T01:43:23;8.70;;;5.18;;
74892;SDS011;63446;56.272;43.922;2023-06-24T01:45:50;11.05;;;5.70;;
74892;SDS011;63446;56.272;43.922;2023-06-24T01:48:19;10.40;;;5.43;;
74892;SDS011;63446;56.272;43.922;2023-06-24T01:50:57;11.23;;;5.30;;
74892;SDS011;63446;56.272;43.922;2023-06-24T01:53:28;7.97;;;4.72;;
74892;SDS011;63446;56.272;43.922;2023-06-24T01:55:57;9.07;;;5.22;;
74892;SDS011;63446;56.272;43.922;2023-06-24T01:58:26;9.48;;;5.35;;
74892;SDS011;63446;56.272;43.922;2023-06-24T02:00:53;10.55;;;5.80;;
74892;SDS011;63446;56.272;43.922;2023-06-24T02:03:20;8.73;;;5.10;;
74892;SDS011;63446;56.272;43.922;2023-06-24T02:05:47;10.55;;;6.10;;
74892;SDS011;63446;56.272;43.922;2023-06-24T02:08:18;10.35;;;5.45;;
74892;SDS011;63446;56.272;43.922;2023-06-24T02:10:46;10.73;;;5.72;;
74892;SDS011;63446;56.272;43.922;2023-06-24T02:13:14;11.20;;;5.68;;
74892;SDS011;63446;56.272;43.922;2023-06-24T02:15:42;8.10;;;4.93;;
74892;SDS011;63446;56.272;43.922;2023-06-24T02:18:09;10.88;;;5.85;;
74892;SDS011;63446;56.272;43.922;2023-06-24T02:20:37;9.88;;;5.50;;
74892;SDS011;63446;56.272;43.922;2023-06-24T02:23:05;10.93;;;6.20;;
74892;SDS011;63446;56.272;43.922;2023-06-24T02:25:34;11.27;;;5.78;;
74892;SDS011;63446;56.272;43.922;2023-06-24T02:28:05;9.40;;;5.47;;
74892;SDS011;63446;56.272;43.922;2023-06-24T02:30:34;10.15;;;5.80;;
74892;SDS011;63446;56.272;43.922;2023-06-24T02:33:01;8.40;;;5.22;;
74892;SDS011;63446;56.272;43.922;2023-06-24T02:35:28;13.63;;;5.40;;
74892;SDS011;63446;56.272;43.922;2023-06-24T02:37:54;11.77;;;5.75;;
74892;SDS011;63446;56.272;43.922;2023-06-24T02:40:20;8.90;;;5.90;;
74892;SDS011;63446;56.272;43.922;2023-06-24T02:42:46;10.45;;;6.28;;
74892;SDS011;63446;56.272;43.922;2023-06-24T02:45:12;10.02;;;5.72;;
74892;SDS011;63446;56.272;43.922;2023-06-24T02:47:38;9.38;;;5.68;;
74892;SDS011;63446;56.272;43.922;2023-06-24T02:50:04;12.77;;;5.93;;
74892;SDS011;63446;56.272;43.922;2023-06-24T02:52:34;11.70;;;6.27;;
74892;SDS011;63446;56.272;43.922;2023-06-24T02:55:03;10.07;;;6.03;;
74892;SDS011;63446;56.272;43.922;2023-06-24T02:57:30;11.25;;;6.53;;
74892;SDS011;63446;56.272;43.922;2023-06-24T03:00:26;11.18;;;6.28;;
74892;SDS011;63446;56.272;43.922;2023-06-24T03:03:10;12.93;;;6.50;;
74892;SDS011;63446;56.272;43.922;2023-06-24T03:05:44;9.43;;;5.93;;
74892;SDS011;63446;56.272;43.922;2023-06-24T03:08:11;11.55;;;6.32;;
74892;SDS011;63446;56.272;43.922;2023-06-24T03:10:37;13.90;;;6.78;;
74892;SDS011;63446;56.272;43.922;2023-06-24T03:13:06;10.20;;;6.43;;
74892;SDS011;63446;56.272;43.922;2023-06-24T03:15:41;12.80;;;7.28;;
74892;SDS011;63446;56.272;43.922;2023-06-24T03:18:08;14.93;;;7.17;;
74892;SDS011;63446;56.272;43.922;2023-06-24T03:20:34;12.23;;;7.35;;
74892;SDS011;63446;56.272;43.922;2023-06-24T03:23:08;12.93;;;7.13;;
74892;SDS011;63446;56.272;43.922;2023-06-24T03:25:36;14.57;;;7.85;;
74892;SDS011;63446;56.272;43.922;2023-06-24T03:28:02;14.60;;;7.75;;
74892;SDS011;63446;56.272;43.922;2023-06-24T03:30:38;13.00;;;6.90;;
74892;SDS011;63446;56.272;43.922;2023-06-24T03:33:04;12.60;;;6.80;;
74892;SDS011;63446;56.272;43.922;2023-06-24T03:35:31;11.82;;;6.78;;
74892;SDS011;63446;56.272;43.922;2023-06-24T03:38:01;14.45;;;7.78;;
74892;SDS011;63446;56.272;43.922;2023-06-24T03:40:27;12.98;;;7.30;;
74892;SDS011;63446;56.272;43.922;2023-06-24T03:42:53;12.37;;;7.57;;
74892;SDS011;63446;56.272;43.922;2023-06-24T03:45:19;15.55;;;7.40;;
74892;SDS011;63446;56.272;43.922;2023-06-24T03:47:45;13.40;;;6.90;;
74892;SDS011;63446;56.272;43.922;2023-06-24T03:50:12;16.80;;;7.43;;
74892;SDS011;63446;56.272;43.922;2023-06-24T03:52:37;13.00;;;7.85;;
74892;SDS011;63446;56.272;43.922;2023-06-24T03:55:03;12.80;;;7.10;;
74892;SDS011;63446;56.272;43.922;2023-06-24T03:57:31;13.98;;;7.93;;
74892;SDS011;63446;56.272;43.922;2023-06-24T03:59:57;12.97;;;7.20;;
74892;SDS011;63446;56.272;43.922;2023-06-24T04:02:23;15.32;;;8.13;;
74892;SDS011;63446;56.272;43.922;2023-06-24T04:04:50;15.23;;;7.88;;
74892;SDS011;63446;56.272;43.922;2023-06-24T04:07:18;14.07;;;7.93;;
74892;SDS011;63446;56.272;43.922;2023-06-24T04:09:55;13.70;;;8.00;;
74892;SDS011;63446;56.272;43.922;2023-06-24T04:12:22;14.13;;;8.00;;
74892;SDS011;63446;56.272;43.922;2023-06-24T04:14:48;15.88;;;8.98;;
74892;SDS011;63446;56.272;43.922;2023-06-24T04:17:15;14.90;;;7.97;;
74892;SDS011;63446;56.272;43.922;2023-06-24T04:19:41;13.73;;;7.57;;
74892;SDS011;63446;56.272;43.922;2023-06-24T04:22:08;15.47;;;7.77;;
74892;SDS011;63446;56.272;43.922;2023-06-24T04:24:34;13.43;;;7.20;;
74892;SDS011;63446;56.272;43.922;2023-06-24T04:27:00;15.27;;;8.05;;
74892;SDS011;63446;56.272;43.922;2023-06-24T04:29:27;13.13;;;7.35;;
74892;SDS011;63446;56.272;43.922;2023-06-24T04:31:54;14.23;;;7.43;;
74892;SDS011;63446;56.272;43.922;2023-06-24T04:34:21;14.73;;;8.47;;
74892;SDS011;63446;56.272;43.922;2023-06-24T04:36:48;13.63;;;7.78;;
74892;SDS011;63446;56.272;43.922;2023-06-24T04:39:13;16.25;;;8.52;;
74892;SDS011;63446;56.272;43.922;2023-06-24T04:41:40;15.60;;;8.27;;
74892;SDS011;63446;56.272;43.922;2023-06-24T04:44:06;13.20;;;7.38;;
74892;SDS011;63446;56.272;43.922;2023-06-24T04:46:32;17.20;;;7.83;;
74892;SDS011;63446;56.272;43.922;2023-06-24T04:48:59;14.65;;;7.78;;
74892;SDS011;63446;56.272;43.922;2023-06-24T04:51:25;15.05;;;7.38;;
74892;SDS011;63446;56.272;43.922;2023-06-24T04:53:50;15.47;;;8.27;;
74892;SDS011;63446;56.272;43.922;2023-06-24T04:56:16;16.45;;;8.48;;
74892;SDS011;63446;56.272;43.922;2023-06-24T04:58:43;15.40;;;7.78;;
74892;SDS011;63446;56.272;43.922;2023-06-24T05:01:08;16.30;;;7.50;;
74892;SDS011;63446;56.272;43.922;2023-06-24T05:03:35;14.95;;;7.72;;
74892;SDS011;63446;56.272;43.922;2023-06-24T05:06:01;15.70;;;8.00;;
74892;SDS011;63446;56.272;43.922;2023-06-24T05:08:27;15.07;;;7.67;;
74892;SDS011;63446;56.272;43.922;2023-06-24T05:10:53;15.13;;;7.90;;
74892;SDS011;63446;56.272;43.922;2023-06-24T05:13:19;14.87;;;8.40;;
74892;SDS011;63446;56.272;43.922;2023-06-24T05:15:44;16.92;;;7.95;;
74892;SDS011;63446;56.272;43.922;2023-06-24T05:18:11;16.08;;;7.20;;
74892;SDS011;63446;56.272;43.922;2023-06-24T05:20:36;19.03;;;7.43;;
74892;SDS011;63446;56.272;43.922;2023-06-24T05:23:02;16.77;;;7.32;;
74892;SDS011;63446;56.272;43.922;2023-06-24T05:25:28;15.95;;;7.78;;
74892;SDS011;63446;56.272;43.922;2023-06-24T05:27:54;14.27;;;7.30;;
74892;SDS011;63446;56.272;43.922;2023-06-24T05:30:19;17.35;;;8.18;;
74892;SDS011;63446;56.272;43.922;2023-06-24T05:32:46;14.50;;;7.17;;
74892;SDS011;63446;56.272;43.922;2023-06-24T05:35:12;15.50;;;8.10;;
74892;SDS011;63446;56.272;43.922;2023-06-24T05:37:39;15.25;;;7.20;;
74892;SDS011;63446;56.272;43.922;2023-06-24T05:40:05;14.50;;;7.38;;
74892;SDS011;63446;56.272;43.922;2023-06-24T05:42:32;14.47;;;7.60;;
74892;SDS011;63446;56.272;43.922;2023-06-24T05:44:59;13.70;;;7.28;;
74892;SDS011;63446;56.272;43.922;2023-06-24T05:47:25;13.60;;;7.20;;
74892;SDS011;63446;56.272;43.922;2023-06-24T05:49:51;16.10;;;7.57;;
74892;SDS011;63446;56.272;43.922;2023-06-24T05:52:16;16.48;;;7.47;;
74892;SDS011;63446;56.272;43.922;2023-06-24T05:54:42;18.92;;;7.18;;
74892;SDS011;63446;56.272;43.922;2023-06-24T05:57:08;15.77;;;7.33;;
74892;SDS011;63446;56.272;43.922;2023-06-24T05:59:35;13.10;;;6.70;;
74892;SDS011;63446;56.272;43.922;2023-06-24T06:02:01;14.48;;;7.43;;
74892;SDS011;63446;56.272;43.922;2023-06-24T06:04:28;14.05;;;7.55;;
74892;SDS011;63446;56.272;43.922;2023-06-24T06:06:54;15.65;;;7.20;;
74892;SDS011;63446;56.272;43.922;2023-06-24T06:09:20;13.27;;;6.90;;
74892;SDS011;63446;56.272;43.922;2023-06-24T06:11:47;15.75;;;7.32;;
74892;SDS011;63446;56.272;43.922;2023-06-24T06:14:13;13.32;;;6.68;;
74892;SDS011;63446;56.272;43.922;2023-06-24T06:16:39;14.10;;;7.03;;
74892;SDS011;63446;56.272;43.922;2023-06-24T06:19:05;12.90;;;6.83;;
74892;SDS011;63446;56.272;43.922;2023-06-24T06:21:31;15.68;;;6.25;;
74892;SDS011;63446;56.272;43.922;2023-06-24T06:23:57;13.38;;;6.45;;
74892;SDS011;63446;56.272;43.922;2023-06-24T06:26:23;14.93;;;7.50;;
74892;SDS011;63446;56.272;43.922;2023-06-24T06:28:49;14.75;;;7.38;;
74892;SDS011;63446;56.272;43.922;2023-06-24T06:31:16;18.42;;;7.10;;
74892;SDS011;63446;56.272;43.922;2023-06-24T06:33:43;13.05;;;6.55;;
74892;SDS011;63446;56.272;43.922;2023-06-24T06:36:09;14.53;;;7.50;;
74892;SDS011;63446;56.272;43.922;2023-06-24T06:38:36;16.45;;;7.18;;
74892;SDS011;63446;56.272;43.922;2023-06-24T06:41:02;13.57;;;7.07;;
74892;SDS011;63446;56.272;43.922;2023-06-24T06:43:27;13.43;;;6.30;;
74892;SDS011;63446;56.272;43.922;2023-06-24T06:45:53;15.20;;;7.10;;
74892;SDS011;63446;56.272;43.922;2023-06-24T06:48:19;12.77;;;6.53;;
74892;SDS011;63446;56.272;43.922;2023-06-24T06:50:45;15.50;;;6.07;;
74892;SDS011;63446;56.272;43.922;2023-06-24T06:53:11;11.82;;;5.63;;
74892;SDS011;63446;56.272;43.922;2023-06-24T06:55:37;16.92;;;6.88;;
74892;SDS011;63446;56.272;43.922;2023-06-24T06:58:05;11.77;;;5.88;;
74892;SDS011;63446;56.272;43.922;2023-06-24T07:00:31;13.77;;;6.45;;
74892;SDS011;63446;56.272;43.922;2023-06-24T07:02:57;13.33;;;6.40;;
74892;SDS011;63446;56.272;43.922;2023-06-24T07:05:23;12.75;;;6.70;;
74892;SDS011;63446;56.272;43.922;2023-06-24T07:07:49;11.47;;;6.10;;
74892;SDS011;63446;56.272;43.922;2023-06-24T07:10:16;15.50;;;7.03;;
74892;SDS011;63446;56.272;43.922;2023-06-24T07:12:45;15.75;;;6.80;;
74892;SDS011;63446;56.272;43.922;2023-06-24T07:15:11;10.85;;;5.68;;
74892;SDS011;63446;56.272;43.922;2023-06-24T07:17:37;11.85;;;6.18;;
74892;SDS011;63446;56.272;43.922;2023-06-24T07:20:03;10.63;;;5.33;;
74892;SDS011;63446;56.272;43.922;2023-06-24T07:22:31;12.57;;;5.88;;
74892;SDS011;63446;56.272;43.922;2023-06-24T07:24:57;13.60;;;6.93;;
74892;SDS011;63446;56.272;43.922;2023-06-24T07:27:23;12.90;;;6.00;;
74892;SDS011;63446;56.272;43.922;2023-06-24T07:29:49;12.38;;;6.18;;
74892;SDS011;63446;56.272;43.922;2023-06-24T07:32:15;13.57;;;6.03;;
74892;SDS011;63446;56.272;43.922;2023-06-24T07:34:40;12.23;;;5.60;;
74892;SDS011;63446;56.272;43.922;2023-06-24T07:37:06;11.52;;;5.88;;
74892;SDS011;63446;56.272;43.922;2023-06-24T07:39:32;12.48;;;6.25;;
74892;SDS011;63446;56.272;43.922;2023-06-24T07:41:58;14.27;;;6.03;;
74892;SDS011;63446;56.272;43.922;2023-06-24T07:44:24;13.38;;;5.80;;
74892;SDS011;63446;56.272;43.922;2023-06-24T07:46:50;12.30;;;6.27;;
74892;SDS011;63446;56.272;43.922;2023-06-24T07:49:17;15.93;;;6.38;;
74892;SDS011;63446;56.272;43.922;2023-06-24T07:51:43;14.55;;;6.30;;
74892;SDS011;63446;56.272;43.922;2023-06-24T07:54:11;11.85;;;5.93;;
74892;SDS011;63446;56.272;43.922;2023-06-24T07:56:37;14.20;;;6.35;;
74892;SDS011;63446;56.272;43.922;2023-06-24T07:59:03;11.03;;;6.07;;
74892;SDS011;63446;56.272;43.922;2023-06-24T08:01:29;13.38;;;5.72;;
74892;SDS011;63446;56.272;43.922;2023-06-24T08:03:55;11.80;;;6.03;;
74892;SDS011;63446;56.272;43.922;2023-06-24T08:06:21;11.73;;;6.00;;
74892;SDS011;63446;56.272;43.922;2023-06-24T08:08:46;11.75;;;5.13;;
74892;SDS011;63446;56.272;43.922;2023-06-24T08:11:12;10.77;;;4.87;;
74892;SDS011;63446;56.272;43.922;2023-06-24T08:13:39;9.80;;;5.07;;
74892;SDS011;63446;56.272;43.922;2023-06-24T08:16:05;12.82;;;5.72;;
74892;SDS011;63446;56.272;43.922;2023-06-24T08:18:31;13.07;;;6.07;;
74892;SDS011;63446;56.272;43.922;2023-06-24T08:20:57;11.25;;;6.38;;
74892;SDS011;63446;56.272;43.922;2023-06-24T08:23:22;11.68;;;5.10;;
74892;SDS011;63446;56.272;43.922;2023-06-24T08:25:48;12.73;;;6.50;;
74892;SDS011;63446;56.272;43.922;2023-06-24T08:28:14;10.23;;;5.35;;
74892;SDS011;63446;56.272;43.922;2023-06-24T08:30:40;10.70;;;5.65;;
74892;SDS011;63446;56.272;43.922;2023-06-24T08:33:06;8.57;;;4.17;;
74892;SDS011;63446;56.272;43.922;2023-06-24T08:35:32;10.32;;;5.05;;
74892;SDS011;63446;56.272;43.922;2023-06-24T08:37:58;10.97;;;5.47;;
74892;SDS011;63446;56.272;43.922;2023-06-24T08:40:24;8.63;;;4.73;;
74892;SDS011;63446;56.272;43.922;2023-06-24T08:42:50;13.73;;;5.25;;
74892;SDS011;63446;56.272;43.922;2023-06-24T08:45:16;9.27;;;5.03;;
74892;SDS011;63446;56.272;43.922;2023-06-24T08:47:42;11.23;;;5.00;;
74892;SDS011;63446;56.272;43.922;2023-06-24T08:50:10;8.75;;;4.60;;
74892;SDS011;63446;56.272;43.922;2023-06-24T08:52:38;9.32;;;4.50;;
74892;SDS011;63446;56.272;43.922;2023-06-24T08:55:10;10.48;;;4.90;;
74892;SDS011;63446;56.272;43.922;2023-06-24T08:57:39;9.27;;;4.57;;
74892;SDS011;63446;56.272;43.922;2023-06-24T09:00:06;10.00;;;5.55;;
74892;SDS011;63446;56.272;43.922;2023-06-24T09:02:37;10.68;;;5.47;;
74892;SDS011;63446;56.272;43.922;2023-06-24T09:05:04;12.15;;;6.13;;
74892;SDS011;63446;56.272;43.922;2023-06-24T09:07:31;8.93;;;4.60;;
74892;SDS011;63446;56.272;43.922;2023-06-24T09:09:57;12.23;;;5.23;;
74892;SDS011;63446;56.272;43.922;2023-06-24T09:12:24;8.95;;;5.40;;
74892;SDS011;63446;56.272;43.922;2023-06-24T09:14:53;10.93;;;5.55;;
74892;SDS011;63446;56.272;43.922;2023-06-24T09:17:20;11.53;;;5.60;;
74892;SDS011;63446;56.272;43.922;2023-06-24T09:19:50;9.27;;;4.72;;
74892;SDS011;63446;56.272;43.922;2023-06-24T09:22:17;10.73;;;5.35;;
74892;SDS011;63446;56.272;43.922;2023-06-24T09:24:45;10.27;;;5.40;;
74892;SDS011;63446;56.272;43.922;2023-06-24T09:27:13;12.07;;;5.78;;
74892;SDS011;63446;56.272;43.922;2023-06-24T09:32:58;11.15;;;5.15;;
74892;SDS011;63446;56.272;43.922;2023-06-24T09:35:24;10.10;;;5.53;;
74892;SDS011;63446;56.272;43.922;2023-06-24T09:37:55;10.57;;;5.47;;
74892;SDS011;63446;56.272;43.922;2023-06-24T09:40:23;11.20;;;5.70;;
74892;SDS011;63446;56.272;43.922;2023-06-24T09:42:50;9.43;;;5.13;;
74892;SDS011;63446;56.272;43.922;2023-06-24T09:45:26;10.73;;;5.60;;
74892;SDS011;63446;56.272;43.922;2023-06-24T09:47:54;8.35;;;4.28;;
74892;SDS011;63446;56.272;43.922;2023-06-24T09:50:21;10.20;;;5.45;;
74892;SDS011;63446;56.272;43.922;2023-06-24T09:52:48;10.27;;;5.60;;
74892;SDS011;63446;56.272;43.922;2023-06-24T09:55:16;9.27;;;5.15;;
74892;SDS011;63446;56.272;43.922;2023-06-24T09:57:46;8.65;;;5.03;;
74892;SDS011;63446;56.272;43.922;2023-06-24T10:00:17;9.02;;;4.65;;
74892;SDS011;63446;56.272;43.922;2023-06-24T10:02:44;9.77;;;4.90;;
74892;SDS011;63446;56.272;43.922;2023-06-24T10:05:12;10.27;;;5.07;;
74892;SDS011;63446;56.272;43.922;2023-06-24T10:07:39;8.90;;;4.90;;
74892;SDS011;63446;56.272;43.922;2023-06-24T10:10:07;9.50;;;5.00;;
74892;SDS011;63446;56.272;43.922;2023-06-24T10:12:36;8.05;;;4.78;;
74892;SDS011;63446;56.272;43.922;2023-06-24T10:15:02;8.23;;;4.45;;
74892;SDS011;63446;56.272;43.922;2023-06-24T10:17:35;7.57;;;4.30;;
74892;SDS011;63446;56.272;43.922;2023-06-24T10:20:04;10.00;;;5.13;;
74892;SDS011;63446;56.272;43.922;2023-06-24T10:22:34;7.45;;;4.28;;
74892;SDS011;63446;56.272;43.922;2023-06-24T10:25:02;8.25;;;4.70;;
74892;SDS011;63446;56.272;43.922;2023-06-24T10:27:40;8.80;;;4.43;;
74892;SDS011;63446;56.272;43.922;2023-06-24T10:30:08;8.57;;;4.63;;
74892;SDS011;63446;56.272;43.922;2023-06-24T10:32:43;8.77;;;5.07;;
74892;SDS011;63446;56.272;43.922;2023-06-24T10:35:22;8.60;;;5.05;;
74892;SDS011;63446;56.272;43.922;2023-06-24T10:37:59;10.05;;;4.72;;
74892;SDS011;63446;56.272;43.922;2023-06-24T10:40:37;7.37;;;4.37;;
74892;SDS011;63446;56.272;43.922;2023-06-24T10:46:06;7.95;;;4.15;;
74892;SDS011;63446;56.272;43.922;2023-06-24T10:48:41;7.70;;;4.18;;
74892;SDS011;63446;56.272;43.922;2023-06-24T10:51:07;7.97;;;4.10;;
74892;SDS011;63446;56.272;43.922;2023-06-24T10:53:33;8.07;;;4.40;;
74892;SDS011;63446;56.272;43.922;2023-06-24T10:55:59;11.15;;;5.50;;
74892;SDS011;63446;56.272;43.922;2023-06-24T10:58:27;7.50;;;4.70;;
74892;SDS011;63446;56.272;43.922;2023-06-24T11:00:52;8.00;;;4.63;;
74892;SDS011;63446;56.272;43.922;2023-06-24T11:03:18;6.70;;;3.90;;
74892;SDS011;63446;56.272;43.922;2023-06-24T11:05:45;6.70;;;3.83;;
74892;SDS011;63446;56.272;43.922;2023-06-24T11:08:11;7.83;;;4.07;;
74892;SDS011;63446;56.272;43.922;2023-06-24T11:10:47;5.80;;;3.70;;
74892;SDS011;63446;56.272;43.922;2023-06-24T11:13:14;7.15;;;3.92;;
74892;SDS011;63446;56.272;43.922;2023-06-24T11:15:40;7.88;;;4.30;;
74892;SDS011;63446;56.272;43.922;2023-06-24T11:18:10;7.20;;;3.75;;
74892;SDS011;63446;56.272;43.922;2023-06-24T11:20:37;6.67;;;3.87;;
74892;SDS011;63446;56.272;43.922;2023-06-24T11:23:07;6.30;;;3.90;;
74892;SDS011;63446;56.272;43.922;2023-06-24T11:25:41;7.55;;;4.00;;
74892;SDS011;63446;56.272;43.922;2023-06-24T11:28:18;8.73;;;4.05;;
74892;SDS011;63446;56.272;43.922;2023-06-24T11:30:44;6.88;;;3.65;;
74892;SDS011;63446;56.272;43.922;2023-06-24T11:33:11;8.47;;;4.27;;
74892;SDS011;63446;56.272;43.922;2023-06-24T11:35:38;7.45;;;4.07;;
74892;SDS011;63446;56.272;43.922;2023-06-24T11:38:04;7.53;;;4.28;;
74892;SDS011;63446;56.272;43.922;2023-06-24T11:40:31;9.75;;;3.28;;
74892;SDS011;63446;56.272;43.922;2023-06-24T11:42:59;7.95;;;4.05;;
74892;SDS011;63446;56.272;43.922;2023-06-24T11:45:26;6.77;;;3.50;;
74892;SDS011;63446;56.272;43.922;2023-06-24T11:47:52;7.70;;;3.70;;
74892;SDS011;63446;56.272;43.922;2023-06-24T11:50:25;5.85;;;3.58;;
74892;SDS011;63446;56.272;43.922;2023-06-24T11:52:52;6.85;;;3.38;;
74892;SDS011;63446;56.272;43.922;2023-06-24T11:55:21;6.23;;;3.70;;
74892;SDS011;63446;56.272;43.922;2023-06-24T12:00:28;8.27;;;3.72;;
74892;SDS011;63446;56.272;43.922;2023-06-24T12:02:57;6.30;;;3.53;;
74892;SDS011;63446;56.272;43.922;2023-06-24T12:05:25;8.63;;;3.67;;
74892;SDS011;63446;56.272;43.922;2023-06-24T12:07:55;6.23;;;3.80;;
74892;SDS011;63446;56.272;43.922;2023-06-24T12:10:24;6.38;;;2.80;;
74892;SDS011;63446;56.272;43.922;2023-06-24T12:12:51;10.57;;;4.20;;
74892;SDS011;63446;56.272;43.922;2023-06-24T12:15:16;8.25;;;4.22;;
74892;SDS011;63446;56.272;43.922;2023-06-24T12:17:42;7.00;;;3.80;;
74892;SDS011;63446;56.272;43.922;2023-06-24T12:20:08;7.07;;;3.83;;
74892;SDS011;63446;56.272;43.922;2023-06-24T12:22:35;6.78;;;3.60;;
74892;SDS011;63446;56.272;43.922;2023-06-24T12:25:01;8.07;;;3.90;;
74892;SDS011;63446;56.272;43.922;2023-06-24T12:27:29;8.05;;;3.63;;
74892;SDS011;63446;56.272;43.922;2023-06-24T12:29:55;6.95;;;3.17;;
74892;SDS011;63446;56.272;43.922;2023-06-24T12:32:22;6.55;;;3.20;;
74892;SDS011;63446;56.272;43.922;2023-06-24T12:34:48;7.57;;;3.70;;
74892;SDS011;63446;56.272;43.922;2023-06-24T12:37:14;8.10;;;3.60;;
74892;SDS011;63446;56.272;43.922;2023-06-24T12:39:40;7.97;;;3.63;;
74892;SDS011;63446;56.272;43.922;2023-06-24T12:42:05;8.35;;;3.13;;
74892;SDS011;63446;56.272;43.922;2023-06-24T12:44:32;6.45;;;3.45;;
74892;SDS011;63446;56.272;43.922;2023-06-24T12:46:57;6.37;;;3.20;;
74892;SDS011;63446;56.272;43.922;2023-06-24T12:49:23;6.63;;;2.97;;
74892;SDS011;63446;56.272;43.922;2023-06-24T12:51:49;6.50;;;3.70;;
74892;SDS011;63446;56.272;43.922;2023-06-24T12:54:14;8.73;;;3.90;;
74892;SDS011;63446;56.272;43.922;2023-06-24T12:56:40;8.80;;;3.53;;
74892;SDS011;63446;56.272;43.922;2023-06-24T12:59:07;7.40;;;3.40;;
74892;SDS011;63446;56.272;43.922;2023-06-24T13:01:33;7.80;;;3.60;;
74892;SDS011;63446;56.272;43.922;2023-06-24T13:03:58;7.20;;;3.72;;
74892;SDS011;63446;56.272;43.922;2023-06-24T13:06:24;9.13;;;4.20;;
74892;SDS011;63446;56.272;43.922;2023-06-24T13:08:51;7.50;;;3.45;;
74892;SDS011;63446;56.272;43.922;2023-06-24T13:11:17;5.88;;;3.20;;
74892;SDS011;63446;56.272;43.922;2023-06-24T13:13:43;9.47;;;4.20;;
74892;SDS011;63446;56.272;43.922;2023-06-24T13:16:08;6.03;;;3.13;;
74892;SDS011;63446;56.272;43.922;2023-06-24T13:18:34;7.30;;;3.20;;
74892;SDS011;63446;56.272;43.922;2023-06-24T13:21:00;6.03;;;3.30;;
74892;SDS011;63446;56.272;43.922;2023-06-24T13:23:26;6.15;;;3.53;;
74892;SDS011;63446;56.272;43.922;2023-06-24T13:25:52;8.83;;;4.50;;
74892;SDS011;63446;56.272;43.922;2023-06-24T13:28:18;7.93;;;4.20;;
74892;SDS011;63446;56.272;43.922;2023-06-24T13:30:44;10.35;;;3.60;;
74892;SDS011;63446;56.272;43.922;2023-06-24T13:33:10;6.47;;;3.65;;
74892;SDS011;63446;56.272;43.922;2023-06-24T13:35:35;8.10;;;3.77;;
74892;SDS011;63446;56.272;43.922;2023-06-24T13:38:02;7.45;;;3.92;;
74892;SDS011;63446;56.272;43.922;2023-06-24T13:40:28;6.40;;;3.13;;
74892;SDS011;63446;56.272;43.922;2023-06-24T13:42:54;5.97;;;2.97;;
74892;SDS011;63446;56.272;43.922;2023-06-24T13:45:20;5.85;;;3.22;;
74892;SDS011;63446;56.272;43.922;2023-06-24T13:47:46;6.57;;;2.90;;
74892;SDS011;63446;56.272;43.922;2023-06-24T13:50:11;8.03;;;3.00;;
74892;SDS011;63446;56.272;43.922;2023-06-24T13:52:37;5.97;;;3.17;;
74892;SDS011;63446;56.272;43.922;2023-06-24T13:55:04;7.20;;;3.10;;
74892;SDS011;63446;56.272;43.922;2023-06-24T13:57:30;6.82;;;3.00;;
74892;SDS011;63446;56.272;43.922;2023-06-24T13:59:56;6.93;;;3.70;;
74892;SDS011;63446;56.272;43.922;2023-06-24T14:02:23;6.33;;;3.47;;
74892;SDS011;63446;56.272;43.922;2023-06-24T14:04:49;6.22;;;3.10;;
74892;SDS011;63446;56.272;43.922;2023-06-24T14:07:15;7.60;;;3.80;;
74892;SDS011;63446;56.272;43.922;2023-06-24T14:09:40;7.93;;;3.57;;
74892;SDS011;63446;56.272;43.922;2023-06-24T14:12:07;6.20;;;3.42;;
74892;SDS011;63446;56.272;43.922;2023-06-24T14:14:34;8.25;;;3.08;;
74892;SDS011;63446;56.272;43.922;2023-06-24T14:17:05;9.23;;;3.78;;
74892;SDS011;63446;56.272;43.922;2023-06-24T14:19:34;7.22;;;2.90;;
74892;SDS011;63446;56.272;43.922;2023-06-24T14:22:00;5.73;;;2.93;;
74892;SDS011;63446;56.272;43.922;2023-06-24T14:24:27;5.22;;;2.80;;
74892;SDS011;63446;56.272;43.922;2023-06-24T14:26:53;6.50;;;3.53;;
74892;SDS011;63446;56.272;43.922;2023-06-24T14:29:19;5.90;;;2.72;;
74892;SDS011;63446;56.272;43.922;2023-06-24T14:31:45;7.57;;;3.60;;
74892;SDS011;63446;56.272;43.922;2023-06-24T14:34:10;7.37;;;2.70;;
74892;SDS011;63446;56.272;43.922;2023-06-24T14:36:36;6.50;;;2.80;;
74892;SDS011;63446;56.272;43.922;2023-06-24T14:39:02;7.57;;;3.00;;
74892;SDS011;63446;56.272;43.922;2023-06-24T14:41:28;5.93;;;2.88;;
74892;SDS011;63446;56.272;43.922;2023-06-24T14:43:54;6.37;;;3.33;;
74892;SDS011;63446;56.272;43.922;2023-06-24T14:46:19;5.45;;;2.92;;